Nearby METAR Reports

 

KCMH - Columbus, Ohio, USA
Distance from station: SW 5mi, 8km
Updated: Wed, 19-Feb-2020 6:51pm EST
Few Clouds
Few Clouds
 Wind from N
Wind: N 6 mph , 9 km/h
Temperature: 34°F , 1°C
Wind Chill: 29°F , -2°C
Dew Point: 12°F , -11°C
Humidity: 41%
Barometer: 30.48 inHg , 1032.2 hPa
Clouds: Few Clouds
Visibility: 10 miles , 16 km
Cloud details: Few Clouds 25000 ft
2020/02/19 23:51 KCMH 192351Z 36005KT 10SM FEW250 01/M11 A3048 RMK AO2 SLP331 T00061106 10050 20000 53006
KOSU - Columbus/St Univ, Ohio, USA
Distance from station: W 14mi, 23km
Updated: Wed, 19-Feb-2020 6:53pm EST
Clear
Clear
 Wind from NNE
Wind: NNE 5 mph , 7 km/h
Temperature: 28°F , -2°C
Wind Chill: 22°F , -6°C
Dew Point: 16°F , -9°C
Humidity: 59%
Barometer: 30.48 inHg , 1032.2 hPa
Clouds: Clear
Visibility: 10 miles , 16 km
2020/02/19 23:53 KOSU 192353Z 02004KT 10SM CLR M02/M09 A3048 RMK AO2 SLP334 T10171089 10033 21017 53004
 
KLCK - Rickenbacker Ang, Ohio, USA
Distance from station: SSW 17mi, 27km
Updated: Wed, 19-Feb-2020 6:55pm EST
Clear
Clear
 Wind from NNW
Wind: NNW 5 mph , 7 km/h
Temperature: 32°F , 0°C
Wind Chill: 27°F , -3°C
Dew Point: 18°F , -8°C
Humidity: 55%
Barometer: 30.48 inHg , 1032.2 hPa
Clouds: Clear
Visibility: 10 miles , 16 km
2020/02/19 23:55 KLCK 192355Z AUTO 34004KT 10SM CLR 00/M08 A3048 RMK AO2 T00041076 10206 21110
KVTA - Newark, Ohio, USA
Distance from station: E 19mi, 30km
Updated: Wed, 19-Feb-2020 6:54pm EST
Clear
Clear
 Wind from NW
Wind: NW 5 mph , 7 km/h
Temperature: 32°F , 0°C
Wind Chill: 27°F , -3°C
Dew Point: 18°F , -8°C
Humidity: 55%
Barometer: 30.47 inHg , 1031.8 hPa
Clouds: Clear
Visibility: 10 miles , 16 km
2020/02/19 23:54 KVTA 192354Z AUTO 31004KT 10SM CLR 00/M08 A3047 RMK AO2 SLP330 T00001078 10056 20000 53009
 
KTZR - Columbus/Bolton, Ohio, USA
Distance from station: WSW 20mi, 31km
Updated: Wed, 19-Feb-2020 6:50pm EST
Clear
Clear
 Wind from N
Wind: N 5 mph , 7 km/h
Temperature: 32°F , 0°C
Wind Chill: 27°F , -3°C
Dew Point: 21°F , -6°C
Humidity: 64%
Barometer: 30.49 inHg , 1032.5 hPa
Clouds: Clear
Visibility: 10 miles , 16 km
2020/02/19 23:50 KTZR 192350Z 35004KT 10SM SKC 00/M06 A3049
KLHQ - Lancaster, Ohio, USA
Distance from station: SSE 22mi, 36km
Updated: Wed, 19-Feb-2020 6:53pm EST
Clear
Clear
 Wind from NNW
Wind: NNW 3 mph , 6 km/h
Temperature: 30°F , -1°C
Dew Point: 19°F , -7°C
Humidity: 64%
Barometer: 30.49 inHg , 1032.5 hPa
Clouds: Clear
Visibility: 10 miles , 16 km
2020/02/19 23:53 KLHQ 192353Z AUTO 34003KT 10SM CLR M01/M07 A3049 RMK AO2 SLP334 T10061067 10056 21006 53008
 
KDLZ - Delaware, Ohio, USA
Distance from station: NW 23mi, 36km
Updated: Wed, 19-Feb-2020 6:59pm EST
Clear
Clear
 Wind from calm
Wind: Calm
Temperature: 30°F , -1°C
Dew Point: 19°F , -7°C
Humidity: 64%
Barometer: 30.49 inHg , 1032.5 hPa
Clouds: Clear
Visibility: 10 miles , 16 km
2020/02/19 23:59 KDLZ 192359Z AUTO 00000KT 10SM CLR M01/M07 A3049 RMK AO2
K4I3 - Mt Vernon/Knox, Ohio, USA
Distance from station: NE 25mi, 40km
Updated: Wed, 19-Feb-2020 7:35pm EST
Clear
Clear
 Wind from W
Wind: W 5 mph , 7 km/h
Temperature: 28°F , -2°C
Wind Chill: 22°F , -6°C
Dew Point: 19°F , -7°C
Humidity: 69%
Barometer: 30.47 inHg , 1031.8 hPa
Clouds: Clear
Visibility: 10 miles , 16 km
2020/02/20 00:35 K4I3 200035Z AUTO 27004KT 10SM CLR M02/M07 A3047 RMK AO2
 
KMRT - Marysville, Ohio, USA
Distance from station: WNW 30mi, 49km
Updated: Wed, 19-Feb-2020 7:36pm EST
Clear
Clear
 Wind from calm
Wind: Calm
Temperature: 30°F , -1°C
Dew Point: 21°F , -6°C
Humidity: 69%
Barometer: 30.48 inHg , 1032.2 hPa
Clouds: Clear
Visibility: 10 miles , 16 km
2020/02/20 00:36 KMRT 200036Z AUTO 00000KT 10SM CLR M01/M06 A3048 RMK AO2 T10151060
KMNN - Marion, Ohio, USA
Distance from station: NNW 41mi, 67km
Updated: Wed, 19-Feb-2020 6:53pm EST
Clear
Clear
 Wind from NW
Wind: NW 3 mph , 6 km/h
Temperature: 28°F , -2°C
Dew Point: 18°F , -8°C
Humidity: 64%
Barometer: 30.48 inHg , 1032.2 hPa
Clouds: Clear
Visibility: 10 miles , 16 km
2020/02/19 23:53 KMNN 192353Z AUTO 31003KT 10SM CLR M02/M08 A3048 RMK AO2 SLP337 T10171078 10011 21017 53001 $
 
KZZV - Zanesville, Ohio, USA
Distance from station: E 49mi, 79km
Updated: Wed, 19-Feb-2020 6:53pm EST
Clear
Clear
 Wind from WNW
Wind: WNW 6 mph , 9 km/h
Temperature: 36°F , 2°C
Wind Chill: 31°F , -1°C
Dew Point: 16°F , -9°C
Humidity: 44%
Barometer: 30.46 inHg , 1031.5 hPa
Clouds: Clear
Visibility: 10 miles , 16 km
2020/02/19 23:53 KZZV 192353Z AUTO 30005KT 10SM CLR 02/M09 A3046 RMK AO2 SLP325 T00171089 10061 20011 53011